createdAt,value
2022-08-19T00:01:30.650Z,98064.06
2022-08-19T00:03:59.047Z,98059.88
2022-08-19T00:06:27.028Z,98055.69
2022-08-19T00:08:53.693Z,98063.00
2022-08-19T00:11:25.486Z,98059.66
2022-08-19T00:13:53.641Z,98052.00
2022-08-19T00:16:26.170Z,98038.78
2022-08-19T00:18:56.733Z,98045.44
2022-08-19T00:21:30.283Z,98048.28
2022-08-19T00:24:01.062Z,98046.09
2022-08-19T00:26:29.019Z,98052.25
2022-08-19T00:28:56.278Z,98047.06
2022-08-19T00:31:23.187Z,98041.06
2022-08-19T00:33:53.072Z,98051.06
2022-08-19T00:36:19.750Z,98057.38
2022-08-19T00:38:47.431Z,98049.69
2022-08-19T00:41:16.231Z,98053.34
2022-08-19T00:43:43.006Z,98050.63
2022-08-19T00:46:10.006Z,98065.16
2022-08-19T00:48:37.468Z,98060.94
2022-08-19T00:51:06.459Z,98046.75
2022-08-19T00:53:34.977Z,98054.09
2022-08-19T00:56:03.327Z,98055.25
2022-08-19T00:58:34.344Z,98049.09
2022-08-19T01:01:01.910Z,98044.94
2022-08-19T01:03:28.808Z,98032.06
2022-08-19T01:06:07.337Z,98039.06
2022-08-19T01:08:34.788Z,98033.38
2022-08-19T01:11:01.839Z,98032.53
2022-08-19T01:13:49.052Z,98025.69
2022-08-19T01:16:20.208Z,98037.34
2022-08-19T01:18:47.228Z,98032.16
2022-08-19T01:21:23.452Z,98023.47
2022-08-19T01:23:50.222Z,98020.00
2022-08-19T01:26:20.082Z,98022.97
2022-08-19T01:28:48.712Z,98018.66
2022-08-19T01:31:27.353Z,98017.94
2022-08-19T01:33:56.931Z,98019.09
2022-08-19T01:36:28.248Z,98012.25
2022-08-19T01:38:55.635Z,98000.91
2022-08-19T01:41:24.490Z,98009.91
2022-08-19T01:44:13.389Z,98009.06
2022-08-19T01:46:40.558Z,98017.06
2022-08-19T01:49:09.064Z,98017.22
2022-08-19T01:51:38.489Z,98017.34
2022-08-19T01:54:08.229Z,98021.19
2022-08-19T01:56:34.881Z,98017.16
2022-08-19T01:59:09.166Z,98012.50
2022-08-19T02:01:35.972Z,98017.97
2022-08-19T02:06:19.495Z,98004.50
2022-08-19T02:08:53.552Z,98003.50
2022-08-19T02:11:34.367Z,98009.53
2022-08-19T02:14:04.024Z,98003.38
2022-08-19T02:16:31.497Z,97999.03
2022-08-19T02:18:58.076Z,98004.38
2022-08-19T02:21:25.133Z,97989.31
2022-08-19T02:23:51.936Z,97996.84
2022-08-19T02:26:20.198Z,97987.84
2022-08-19T02:28:47.340Z,97987.00
2022-08-19T02:31:17.016Z,97993.34
2022-08-19T02:33:43.748Z,97997.13
2022-08-19T02:36:11.973Z,97996.31
2022-08-19T02:38:38.813Z,97986.41
2022-08-19T02:41:09.032Z,97988.22
2022-08-19T02:43:39.602Z,98004.47
2022-08-19T02:46:25.591Z,98002.78
2022-08-19T02:48:54.238Z,98000.13
2022-08-19T02:51:31.276Z,97997.47
2022-08-19T02:53:58.496Z,98005.44
2022-08-19T02:56:28.447Z,98006.44
2022-08-19T02:58:56.241Z,97998.34
2022-08-19T03:01:32.503Z,98018.22
2022-08-19T03:04:01.816Z,98017.69
2022-08-19T03:06:29.064Z,98022.31
2022-08-19T03:08:56.353Z,98019.00
2022-08-19T03:11:30.267Z,98020.78
2022-08-19T03:13:58.062Z,98017.16
2022-08-19T03:16:26.696Z,98019.81
2022-08-19T03:18:54.093Z,98019.97
2022-08-19T03:21:24.908Z,98013.78
2022-08-19T03:23:55.996Z,98010.00
2022-08-19T03:26:22.736Z,98012.69
2022-08-19T03:28:51.804Z,98018.00
2022-08-19T03:31:44.530Z,98018.13
2022-08-19T03:34:27.060Z,98025.13
2022-08-19T03:37:01.473Z,98028.13
2022-08-19T03:39:28.673Z,98023.78
2022-08-19T03:42:32.361Z,98024.75
2022-08-19T03:44:49.067Z,98032.91
2022-08-19T03:47:17.478Z,98028.75
2022-08-19T03:49:44.771Z,98034.06
2022-08-19T03:52:11.391Z,98033.38
2022-08-19T03:54:39.227Z,98039.50
2022-08-19T03:57:06.079Z,98023.50
2022-08-19T03:59:35.181Z,98029.19
2022-08-19T04:02:09.595Z,98027.50
2022-08-19T04:04:38.398Z,98015.03
2022-08-19T04:07:05.411Z,98006.03
2022-08-19T04:09:32.113Z,98010.38
2022-08-19T04:11:59.072Z,98010.22
2022-08-19T04:14:29.333Z,98016.25
2022-08-19T04:16:56.550Z,98007.44
2022-08-19T04:19:24.295Z,98014.41
2022-08-19T04:21:54.104Z,98011.75
2022-08-19T04:24:21.468Z,97961.44
2022-08-19T04:26:49.104Z,98017.22
2022-08-19T04:29:22.731Z,98025.22
2022-08-19T04:31:50.573Z,98027.06
2022-08-19T04:34:19.360Z,98027.06
2022-08-19T04:36:46.291Z,98028.88
2022-08-19T04:39:17.290Z,98031.53
2022-08-19T04:42:03.820Z,98037.63
2022-08-19T04:44:33.154Z,98048.94
2022-08-19T04:47:01.087Z,98045.13
2022-08-19T04:49:28.798Z,98053.00
2022-08-19T04:51:56.029Z,98054.50
2022-08-19T04:54:38.735Z,98068.41
2022-08-19T04:57:10.824Z,98073.41
2022-08-19T04:59:39.694Z,98078.59
2022-08-19T05:02:08.602Z,98076.75
2022-08-19T05:04:36.252Z,98078.44
2022-08-19T05:07:03.080Z,98071.97
2022-08-19T05:09:52.515Z,98073.47
2022-08-19T05:12:18.245Z,98080.03
2022-08-19T05:14:46.920Z,98069.22
2022-08-19T05:17:34.623Z,98078.25
2022-08-19T05:20:20.019Z,98076.94
2022-08-19T05:22:48.346Z,98082.81
2022-08-19T05:25:19.899Z,98079.00
2022-08-19T05:27:46.987Z,98071.16
2022-08-19T05:30:14.314Z,98076.69
2022-08-19T05:32:41.544Z,98037.94
2022-08-19T05:35:09.157Z,98075.53
2022-08-19T05:37:35.772Z,98065.56
2022-08-19T05:40:02.902Z,98064.41
2022-08-19T05:42:29.566Z,98066.91
2022-08-19T05:44:57.580Z,98074.78
2022-08-19T05:47:24.373Z,98084.28
2022-08-19T05:49:51.724Z,98069.97
2022-08-19T05:52:25.539Z,98076.81
2022-08-19T05:54:55.707Z,98065.16
2022-08-19T05:57:22.913Z,98062.34
2022-08-19T05:59:53.210Z,98065.69
2022-08-19T06:02:32.017Z,98069.22
2022-08-19T06:04:58.939Z,98076.88
2022-08-19T06:07:26.783Z,98075.06
2022-08-19T06:09:59.636Z,98074.72
2022-08-19T06:12:35.458Z,98077.28
2022-08-19T06:15:11.061Z,98074.44
2022-08-19T06:17:38.217Z,98068.56
2022-08-19T06:20:06.600Z,98079.31
2022-08-19T06:22:41.835Z,98076.31
2022-08-19T06:25:10.151Z,98086.81
2022-08-19T06:27:42.020Z,98096.31
2022-08-19T06:30:15.843Z,98092.66
2022-08-19T06:32:43.079Z,98091.66
2022-08-19T06:35:11.752Z,98090.69
2022-08-19T06:37:43.356Z,98082.50
2022-08-19T06:40:12.066Z,98087.72
2022-08-19T06:42:39.384Z,98092.88
2022-08-19T06:45:11.248Z,98083.88
2022-08-19T06:47:38.059Z,98090.88
2022-08-19T06:50:05.748Z,98101.41
2022-08-19T06:52:36.530Z,98098.75
2022-08-19T06:55:06.004Z,98098.56
2022-08-19T06:57:34.174Z,98098.41
2022-08-19T07:00:03.371Z,98107.25
2022-08-19T07:02:30.509Z,98106.25
2022-08-19T07:04:58.841Z,98108.91
2022-08-19T07:07:25.606Z,98105.13
2022-08-19T07:09:59.018Z,98111.28
2022-08-19T07:12:29.616Z,98098.63
2022-08-19T07:14:57.210Z,98108.28
2022-08-19T07:17:24.469Z,98111.78
2022-08-19T07:19:51.676Z,98099.16
2022-08-19T07:22:24.219Z,98096.78
2022-08-19T07:24:52.154Z,98105.13
2022-08-19T07:27:24.528Z,98111.31
2022-08-19T07:29:56.148Z,98106.97
2022-08-19T07:34:46.369Z,98111.97
2022-08-19T07:37:13.267Z,98121.50
2022-08-19T07:39:40.174Z,98124.03
2022-08-19T07:42:09.612Z,98115.84
2022-08-19T07:44:37.767Z,98122.03
2022-08-19T07:47:05.812Z,98108.16
2022-08-19T07:49:32.780Z,98116.53
2022-08-19T07:52:03.174Z,98128.59
2022-08-19T07:54:35.311Z,98126.75
2022-08-19T07:57:02.867Z,98128.44
2022-08-19T07:59:29.902Z,98132.78
2022-08-19T08:01:57.726Z,98135.28
2022-08-19T08:04:42.704Z,98123.41
2022-08-19T08:07:31.652Z,98134.28
2022-08-19T08:09:58.708Z,98141.00
2022-08-19T08:12:34.796Z,98144.31
2022-08-19T08:15:08.913Z,98145.84
2022-08-19T08:17:49.723Z,98141.13
2022-08-19T08:20:20.095Z,98143.16
2022-08-19T08:23:07.134Z,98147.84
2022-08-19T08:25:36.313Z,98149.38
2022-08-19T08:28:04.152Z,98151.06
2022-08-19T08:30:33.806Z,98152.56
2022-08-19T08:33:02.514Z,98156.75
2022-08-19T08:37:51.337Z,98155.44
2022-08-19T08:41:05.370Z,98151.78
2022-08-19T08:43:35.965Z,98144.41
2022-08-19T08:46:08.628Z,98141.59
2022-08-19T08:48:57.018Z,98144.94
2022-08-19T08:51:33.198Z,98144.78
2022-08-19T08:54:05.321Z,98146.31
2022-08-19T08:59:13.755Z,98140.63
2022-08-19T09:01:40.869Z,98145.78
2022-08-19T09:04:12.841Z,98141.13
2022-08-19T09:07:18.026Z,98135.63
2022-08-19T09:09:53.645Z,98135.31
2022-08-19T09:12:35.276Z,98134.31
2022-08-19T09:15:07.603Z,98136.81
2022-08-19T09:17:39.394Z,98131.28
2022-08-19T09:20:26.315Z,98129.47
2022-08-19T09:22:53.057Z,98130.31
2022-08-19T09:25:26.787Z,98127.63
2022-08-19T09:28:02.846Z,98127.63
2022-08-19T09:30:33.103Z,98116.00
2022-08-19T09:33:00.129Z,98114.13
2022-08-19T09:35:32.172Z,98116.81
2022-08-19T09:38:16.933Z,98112.16
2022-08-19T09:40:43.581Z,98114.81
2022-08-19T09:43:13.209Z,98099.41
2022-08-19T09:45:41.054Z,98119.00
2022-08-19T09:48:11.825Z,98112.84
2022-08-19T09:50:52.045Z,98101.28
2022-08-19T09:53:19.920Z,98109.81
2022-08-19T09:55:46.785Z,98096.78
2022-08-19T09:58:13.470Z,98093.28
2022-08-19T10:00:40.203Z,98100.63
2022-08-19T10:03:07.137Z,98101.47
2022-08-19T10:05:50.332Z,98098.63
2022-08-19T10:08:27.663Z,98092.78
2022-08-19T10:10:55.873Z,98092.94
2022-08-19T10:13:26.384Z,98085.78
2022-08-19T10:15:56.916Z,98092.81
2022-08-19T10:18:25.408Z,98087.28
2022-08-19T10:20:54.497Z,98092.44
2022-08-19T10:23:22.391Z,98091.47
2022-08-19T10:25:50.549Z,98090.47
2022-08-19T10:30:49.142Z,98096.31
2022-08-19T10:33:16.130Z,98095.16
2022-08-19T10:36:10.710Z,98099.63
2022-08-19T10:38:38.544Z,98091.63
2022-08-19T10:41:11.369Z,98099.31
2022-08-19T10:43:39.242Z,98097.47
2022-08-19T10:46:13.760Z,98095.81
2022-08-19T10:48:42.261Z,98095.31
2022-08-19T10:51:27.906Z,98093.31
2022-08-19T10:53:56.827Z,98087.13
2022-08-19T10:56:42.513Z,98087.78
2022-08-19T10:59:10.075Z,98067.91
2022-08-19T11:01:36.974Z,98079.44
2022-08-19T11:04:05.346Z,98081.13
2022-08-19T11:06:35.008Z,98074.91
2022-08-19T11:09:01.673Z,98078.28
2022-08-19T11:11:29.417Z,98076.28
2022-08-19T11:13:56.226Z,98061.72
2022-08-19T11:16:26.265Z,98062.22
2022-08-19T11:18:59.358Z,98065.22
2022-08-19T11:21:38.128Z,98065.91
2022-08-19T11:24:10.964Z,98029.81
2022-08-19T11:26:39.728Z,98063.88
2022-08-19T11:29:12.468Z,98060.22
2022-08-19T11:31:41.804Z,98051.19
2022-08-19T11:34:13.193Z,98057.22
2022-08-19T11:36:43.448Z,98045.50
2022-08-19T11:39:11.522Z,98032.16
2022-08-19T11:41:38.226Z,98004.41
2022-08-19T11:44:05.555Z,98041.53
2022-08-19T11:46:32.727Z,98044.19
2022-08-19T11:49:01.557Z,98041.69
2022-08-19T11:51:28.894Z,98047.69
2022-08-19T11:53:57.318Z,98046.50
2022-08-19T11:56:28.344Z,98044.69
2022-08-19T11:58:57.676Z,98047.38
2022-08-19T12:01:26.843Z,98050.72
2022-08-19T12:03:56.085Z,98037.66
2022-08-19T12:06:36.277Z,98051.38
2022-08-19T12:09:08.900Z,98051.22
2022-08-19T12:11:37.850Z,98052.84
2022-08-19T12:14:04.909Z,98044.84
2022-08-19T12:16:32.858Z,98052.72
2022-08-19T12:19:04.655Z,98052.53
2022-08-19T12:21:33.291Z,98040.34
2022-08-19T12:24:01.408Z,98051.53
2022-08-19T12:26:30.234Z,98046.81
2022-08-19T12:28:56.877Z,98053.03
2022-08-19T12:31:23.629Z,98045.81
2022-08-19T12:33:50.281Z,98049.34
2022-08-19T12:36:18.430Z,98052.66
2022-08-19T12:38:45.852Z,98052.66
2022-08-19T12:41:18.706Z,98050.84
2022-08-19T12:43:46.301Z,98043.47
2022-08-19T12:46:13.392Z,98041.66
2022-08-19T12:48:42.731Z,98045.13
2022-08-19T12:51:11.841Z,98037.97
2022-08-19T12:53:39.594Z,98027.28
2022-08-19T12:56:08.975Z,98023.41
2022-08-19T12:58:40.219Z,98035.94
2022-08-19T13:01:09.077Z,98039.47
2022-08-19T13:03:40.353Z,98037.59
2022-08-19T13:06:09.422Z,98037.44
2022-08-19T13:08:36.786Z,98039.09
2022-08-19T13:11:15.985Z,98034.59
2022-08-19T13:13:45.426Z,98032.56
2022-08-19T13:16:13.289Z,98030.06
2022-08-19T13:18:41.645Z,98020.22
2022-08-19T13:21:10.349Z,98026.22
2022-08-19T13:23:37.143Z,98020.88
2022-08-19T13:26:06.786Z,98021.72
2022-08-19T13:28:53.609Z,98015.34
2022-08-19T13:33:46.304Z,98013.84
2022-08-19T13:36:14.040Z,98026.03
2022-08-19T13:38:41.704Z,98017.88
2022-08-19T13:41:12.182Z,98014.34
2022-08-19T13:43:41.302Z,98026.72
2022-08-19T13:46:14.942Z,98021.19
2022-08-19T13:48:41.841Z,98018.50
2022-08-19T13:51:12.684Z,98016.69
2022-08-19T13:53:40.430Z,98014.00
2022-08-19T13:56:10.966Z,98005.97
2022-08-19T13:58:38.720Z,98006.63
2022-08-19T14:01:06.622Z,98005.78
2022-08-19T14:03:34.461Z,98007.47
2022-08-19T14:06:01.545Z,98004.78
2022-08-19T14:08:29.143Z,97994.91
2022-08-19T14:10:56.319Z,98001.13
2022-08-19T14:13:24.233Z,98002.13
2022-08-19T14:15:51.563Z,97991.22
2022-08-19T14:18:18.921Z,97995.75
2022-08-19T14:20:45.885Z,97995.59
2022-08-19T14:23:13.700Z,97994.75
2022-08-19T14:25:40.338Z,97983.03
2022-08-19T14:28:08.334Z,97968.50
2022-08-19T14:30:38.666Z,97982.03
2022-08-19T14:33:06.910Z,97982.88
2022-08-19T14:35:37.115Z,97980.19
2022-08-19T14:38:05.767Z,97989.72
2022-08-19T14:40:32.771Z,97995.06
2022-08-19T14:43:04.871Z,97991.53
2022-08-19T14:45:37.308Z,97996.91
2022-08-19T14:48:06.212Z,97994.22
2022-08-19T14:50:33.328Z,97996.75
2022-08-19T14:53:12.351Z,97993.22
2022-08-19T14:55:42.787Z,97987.03
2022-08-19T14:58:09.892Z,97992.41
2022-08-19T15:00:57.454Z,97990.53
2022-08-19T15:03:24.068Z,97986.84
2022-08-19T15:05:50.731Z,97983.38
2022-08-19T15:08:17.297Z,97980.69
2022-08-19T15:10:44.000Z,97972.47
2022-08-19T15:13:10.818Z,97968.94
2022-08-19T15:15:38.211Z,97961.78
2022-08-19T15:18:07.773Z,97950.06
2022-08-19T15:20:34.411Z,97944.72
2022-08-19T15:23:01.403Z,97942.66
2022-08-19T15:25:28.854Z,97945.34
2022-08-19T15:27:55.963Z,97949.69
2022-08-19T15:30:27.938Z,97953.25
2022-08-19T15:32:55.819Z,97941.53
2022-08-19T15:35:24.221Z,97956.75
2022-08-19T15:37:52.845Z,97952.22
2022-08-19T15:40:21.497Z,97953.06
2022-08-19T15:42:49.816Z,97945.03
2022-08-19T15:45:18.017Z,97952.06
2022-08-19T15:47:44.890Z,97937.81
2022-08-19T15:50:23.792Z,97944.84
2022-08-19T15:52:53.615Z,97936.81
2022-08-19T15:55:33.225Z,97933.97
2022-08-19T15:58:28.238Z,97932.31
2022-08-19T16:01:20.676Z,97931.47
2022-08-19T16:04:14.365Z,97929.81
2022-08-19T16:06:53.017Z,97939.31
2022-08-19T16:09:26.626Z,97936.66
2022-08-19T16:12:01.846Z,97935.63
2022-08-19T16:14:30.799Z,97935.63
2022-08-19T16:16:57.483Z,97949.03
2022-08-19T16:19:25.340Z,97957.06
2022-08-19T16:21:54.179Z,97974.78
2022-08-19T16:24:24.120Z,97962.22
2022-08-19T16:26:52.215Z,97956.03
2022-08-19T16:29:33.789Z,97957.06
2022-08-19T16:32:09.906Z,97960.41
2022-08-19T16:34:38.100Z,97960.41
2022-08-19T16:37:04.976Z,97964.91
2022-08-19T16:39:32.180Z,97972.94
2022-08-19T16:41:59.845Z,97969.44
2022-08-19T16:44:29.822Z,97976.47
2022-08-19T16:46:59.527Z,97970.25
2022-08-19T16:49:53.915Z,97980.13
2022-08-19T16:52:18.405Z,97978.28
2022-08-19T16:54:48.142Z,97982.81
2022-08-19T16:57:15.031Z,97979.31
2022-08-19T16:59:43.833Z,97984.69
2022-08-19T17:02:15.413Z,97993.72
2022-08-19T17:04:42.315Z,97994.53
2022-08-19T17:07:09.987Z,97986.50
2022-08-19T17:09:37.976Z,97975.78
2022-08-19T17:12:05.479Z,97968.75
2022-08-19T17:14:32.184Z,97976.66
2022-08-19T17:16:58.763Z,97968.63
2022-08-19T17:19:25.356Z,97973.78
2022-08-19T17:21:52.424Z,97972.94
2022-08-19T17:24:19.032Z,97966.56
2022-08-19T17:26:46.072Z,97970.09
2022-08-19T17:29:12.670Z,97961.88
2022-08-19T17:31:39.288Z,97965.38
2022-08-19T17:34:05.945Z,97972.41
2022-08-19T17:36:34.093Z,97979.44
2022-08-19T17:39:04.559Z,97978.44
2022-08-19T17:41:34.194Z,97979.25
2022-08-19T17:44:01.901Z,97981.94
2022-08-19T17:46:30.028Z,97991.00
2022-08-19T17:48:57.845Z,97998.66
2022-08-19T17:51:40.280Z,97996.81
2022-08-19T17:54:10.750Z,97989.44
2022-08-19T17:56:38.076Z,98003.84
2022-08-19T17:59:06.223Z,97990.34
2022-08-19T18:01:52.658Z,98009.03
2022-08-19T18:04:21.913Z,98011.72
2022-08-19T18:06:52.982Z,98012.53
2022-08-19T18:09:41.549Z,98013.91
2022-08-19T18:12:16.326Z,98024.94
2022-08-19T18:14:43.098Z,98034.78
2022-08-19T18:17:12.412Z,98033.78
2022-08-19T18:19:42.750Z,98032.97
2022-08-19T18:22:13.000Z,98035.44
2022-08-19T18:24:41.673Z,98038.94
2022-08-19T18:27:08.739Z,98045.97
2022-08-19T18:29:38.510Z,98044.31
2022-08-19T18:32:06.995Z,98048.66
2022-08-19T18:34:36.388Z,98048.66
2022-08-19T18:37:03.206Z,98041.47
2022-08-19T18:39:48.207Z,98054.00
2022-08-19T18:42:36.969Z,98067.41
2022-08-19T18:45:24.220Z,98098.53
2022-08-19T18:48:26.794Z,98118.28
2022-08-19T18:50:59.675Z,98132.53
2022-08-19T18:53:29.599Z,98133.53
2022-08-19T18:55:57.593Z,98125.31
2022-08-19T18:58:31.998Z,98149.78
2022-08-19T19:00:59.673Z,98167.03
2022-08-19T19:03:26.891Z,98170.03
2022-08-19T19:05:54.123Z,98172.88
2022-08-19T19:10:51.173Z,98179.41
2022-08-19T19:13:18.062Z,98178.75
2022-08-19T19:15:44.734Z,98199.47
2022-08-19T19:18:13.446Z,98193.47
2022-08-19T19:20:42.923Z,98194.66
2022-08-19T19:23:09.656Z,98191.31
2022-08-19T19:25:49.912Z,98186.94
2022-08-19T19:28:20.805Z,98188.91
2022-08-19T19:30:47.393Z,98195.31
2022-08-19T19:33:14.080Z,98188.28
2022-08-19T19:35:45.740Z,98193.78
2022-08-19T19:38:14.105Z,98178.88
2022-08-19T19:40:40.825Z,98179.91
2022-08-19T19:43:10.705Z,98178.25
2022-08-19T19:45:38.027Z,98177.38
2022-08-19T19:48:05.430Z,98174.88
2022-08-19T19:52:58.625Z,98171.72
2022-08-19T19:55:26.640Z,98170.91
2022-08-19T19:57:54.369Z,98175.56
2022-08-19T20:00:22.221Z,98171.38
2022-08-19T20:02:50.817Z,98166.22
2022-08-19T20:05:22.141Z,98163.53
2022-08-19T20:08:08.913Z,98165.53
2022-08-19T20:10:36.676Z,98182.94
2022-08-19T20:13:04.837Z,98184.09
2022-08-19T20:15:32.286Z,98179.91
2022-08-19T20:18:00.808Z,98165.88
2022-08-19T20:20:28.219Z,98162.88
2022-08-19T20:22:55.117Z,98182.94
2022-08-19T20:25:22.426Z,98186.78
2022-08-19T20:27:50.184Z,98145.13
2022-08-19T20:30:20.208Z,98186.28
2022-08-19T20:32:48.825Z,98192.63
2022-08-19T20:35:20.508Z,98197.97
2022-08-19T20:37:48.222Z,98200.34
2022-08-19T20:40:16.332Z,98209.19
2022-08-19T20:42:47.323Z,98208.19
2022-08-19T20:45:33.682Z,98215.88
2022-08-19T20:48:03.380Z,98206.84
2022-08-19T20:50:32.457Z,98205.84
2022-08-19T20:52:59.729Z,98211.19
2022-08-19T20:55:27.338Z,98207.69
2022-08-19T20:57:54.984Z,98209.34
2022-08-19T21:00:21.782Z,98199.50
2022-08-19T21:02:48.418Z,98192.47
2022-08-19T21:05:15.234Z,98187.28
2022-08-19T21:07:42.811Z,98186.13
2022-08-19T21:10:09.432Z,98170.06
2022-08-19T21:12:36.647Z,98174.75
2022-08-19T21:15:04.759Z,98171.38
2022-08-19T21:17:31.597Z,98181.25
2022-08-19T21:19:58.266Z,98182.94
2022-08-19T21:22:24.843Z,98186.28
2022-08-19T21:24:51.653Z,98186.13
2022-08-19T21:27:18.296Z,98190.28
2022-08-19T21:32:06.587Z,98189.94
2022-08-19T21:34:34.220Z,98185.63
2022-08-19T21:37:00.818Z,98186.28
2022-08-19T21:39:27.587Z,98191.47
2022-08-19T21:41:54.412Z,98193.28
2022-08-19T21:44:21.357Z,98197.66
2022-08-19T21:46:50.432Z,98194.16
2022-08-19T21:49:17.620Z,98199.50
2022-08-19T21:51:44.197Z,98206.69
2022-08-19T21:54:13.973Z,98190.63
2022-08-19T21:56:41.888Z,98178.25
2022-08-19T21:59:08.747Z,98181.91
2022-08-19T22:01:36.024Z,98182.94
2022-08-19T22:04:02.639Z,98195.47
2022-08-19T22:06:29.251Z,98199.00
2022-08-19T22:08:55.908Z,98196.31
2022-08-19T22:11:27.435Z,98194.66
2022-08-19T22:13:55.932Z,98185.25
2022-08-19T22:16:24.028Z,98197.13
2022-08-19T22:18:51.556Z,98198.13
2022-08-19T22:21:34.552Z,98203.66
2022-08-19T22:24:10.261Z,98203.50
2022-08-19T22:26:37.013Z,98200.81
2022-08-19T22:29:03.827Z,98198.31
2022-08-19T22:31:31.267Z,98196.63
2022-08-19T22:33:58.426Z,98208.38
2022-08-19T22:36:26.957Z,98199.47
2022-08-19T22:38:55.485Z,98160.31
2022-08-19T22:41:22.065Z,98198.34
2022-08-19T22:43:48.709Z,98195.97
2022-08-19T22:46:17.552Z,98202.16
2022-08-19T22:48:45.427Z,98207.50
2022-08-19T22:53:42.111Z,98182.91
2022-08-19T22:56:14.612Z,98194.59
2022-08-19T22:58:42.343Z,98188.56
2022-08-19T23:01:11.134Z,98187.91
2022-08-19T23:03:42.132Z,98192.41
2022-08-19T23:06:08.958Z,98199.59
2022-08-19T23:08:39.733Z,98186.22
2022-08-19T23:11:06.830Z,98187.06
2022-08-19T23:13:33.751Z,98188.72
2022-08-19T23:16:00.445Z,98186.88
2022-08-19T23:18:27.622Z,98184.06
2022-08-19T23:20:54.629Z,98179.72
2022-08-19T23:23:24.813Z,98178.88
2022-08-19T23:25:53.637Z,98175.19
2022-08-19T23:28:39.807Z,98176.03
2022-08-19T23:31:07.720Z,98188.25
2022-08-19T23:33:51.554Z,98196.94
2022-08-19T23:36:20.492Z,98198.25
2022-08-19T23:38:49.336Z,98184.06
2022-08-19T23:41:17.544Z,98179.84
2022-08-19T23:43:44.382Z,98194.22
2022-08-19T23:46:14.732Z,98183.50
2022-08-19T23:48:55.505Z,98168.13
2022-08-19T23:51:22.460Z,98170.44
2022-08-19T23:53:49.197Z,98182.44
2022-08-19T23:56:15.804Z,98190.78
2022-08-19T23:58:42.674Z,98189.44
